createdAt,value
2018-06-17T09:13:41.686Z,66.10
2018-06-17T09:16:26.698Z,66.20
2018-06-17T09:19:13.788Z,67.35
2018-06-17T09:21:15.923Z,67.26
2018-06-17T09:23:18.202Z,66.74
2018-06-17T09:25:20.382Z,67.99
2018-06-17T09:27:22.226Z,68.29
2018-06-17T09:29:24.523Z,67.90
2018-06-17T09:31:26.753Z,67.80
2018-06-17T09:34:16.970Z,67.90
2018-06-17T09:36:19.030Z,69.15
2018-06-17T09:38:21.070Z,67.71
2018-06-17T09:40:23.162Z,67.99
2018-06-17T09:42:25.214Z,67.42
2018-06-17T09:44:27.066Z,67.61
2018-06-17T09:46:28.972Z,67.90
2018-06-17T09:48:30.978Z,66.94
2018-06-17T09:50:33.050Z,67.26
2018-06-17T09:52:34.972Z,66.20
2018-06-17T09:54:37.097Z,65.72
2018-06-17T09:56:39.102Z,64.66
2018-06-17T09:58:41.003Z,64.86
2018-06-17T10:00:43.078Z,66.20
2018-06-17T10:02:44.884Z,66.42
2018-06-17T10:04:46.735Z,64.98
2018-06-17T10:06:48.631Z,63.64
2018-06-17T10:08:50.415Z,62.87
2018-06-17T10:10:52.337Z,63.79
2018-06-17T10:12:54.400Z,64.47
2018-06-17T10:14:57.360Z,63.64
2018-06-17T10:16:59.272Z,64.40
2018-06-17T10:19:01.314Z,63.15
2018-06-17T10:21:03.355Z,62.12
2018-06-17T10:23:05.339Z,61.61
2018-06-17T10:25:07.299Z,59.97
2018-06-17T10:27:09.074Z,61.00
2018-06-17T10:29:52.459Z,62.67
2018-06-17T10:31:54.179Z,59.20
2018-06-17T10:35:47.210Z,60.84
2018-06-17T10:39:57.443Z,59.78
2018-06-17T10:43:13.626Z,59.75
2018-06-17T10:45:16.073Z,59.37
2018-06-17T10:47:18.123Z,61.87
2018-06-17T10:49:51.876Z,60.94
2018-06-17T10:53:21.815Z,59.01
2018-06-17T10:56:12.343Z,58.53
2018-06-17T10:58:14.512Z,58.82
2018-06-17T11:00:16.820Z,58.63
2018-06-17T11:03:38.291Z,59.27
2018-06-17T11:05:41.356Z,58.89
2018-06-17T11:09:08.457Z,58.79
2018-06-17T11:11:11.014Z,59.47
2018-06-17T11:13:13.286Z,59.08
2018-06-17T11:15:30.754Z,59.17
2018-06-17T11:17:33.027Z,59.56
2018-06-17T11:20:00.218Z,58.70
2018-06-17T11:22:02.461Z,58.98
2018-06-17T11:24:48.473Z,59.94
2018-06-17T11:27:36.097Z,58.89
2018-06-17T11:30:33.292Z,59.17
2018-06-17T11:32:35.266Z,58.60
2018-06-17T11:34:37.291Z,59.08
2018-06-17T11:36:39.159Z,59.17
2018-06-17T11:38:40.981Z,58.70
2018-06-17T11:40:42.802Z,59.75
2018-06-17T11:42:44.776Z,59.85
2018-06-17T11:44:46.636Z,59.49
2018-06-17T11:48:11.195Z,58.98
2018-06-17T11:50:13.825Z,59.56
2018-06-17T11:52:16.073Z,59.56
2018-06-17T11:54:18.069Z,59.97
2018-06-17T11:56:19.736Z,59.49
2018-06-17T11:58:21.793Z,59.49
2018-06-17T12:00:23.593Z,59.01
2018-06-17T12:02:25.606Z,60.55
2018-06-17T12:04:27.431Z,59.49
2018-06-17T12:06:29.512Z,59.01
2018-06-17T12:08:31.532Z,59.78
2018-06-17T12:10:33.432Z,58.89
2018-06-17T12:12:35.381Z,59.27
2018-06-17T12:14:37.355Z,59.85
2018-06-17T12:17:21.769Z,61.04
2018-06-17T12:19:23.458Z,60.07
2018-06-17T12:21:24.978Z,61.80
2018-06-17T12:23:26.865Z,60.24
2018-06-17T12:25:28.908Z,60.42
2018-06-17T12:27:30.588Z,59.97
2018-06-17T12:29:32.343Z,60.94
2018-06-17T12:31:34.430Z,59.20
2018-06-17T12:33:36.066Z,60.07
2018-06-17T12:35:37.743Z,59.49
2018-06-17T12:38:26.983Z,59.40
2018-06-17T12:41:14.534Z,59.88
2018-06-17T12:43:16.469Z,59.11
2018-06-17T12:45:18.515Z,59.97
2018-06-17T12:47:20.215Z,59.11
2018-06-17T12:49:22.039Z,59.72
2018-06-17T12:51:23.720Z,59.04
2018-06-17T12:53:25.787Z,58.85
2018-06-17T12:55:27.593Z,58.78
2018-06-17T12:57:29.311Z,58.69
2018-06-17T12:59:31.288Z,57.82
2018-06-17T13:01:33.085Z,56.57
2018-06-17T13:03:35.136Z,57.40
2018-06-17T13:05:37.080Z,58.17
2018-06-17T13:07:39.004Z,57.79
2018-06-17T13:09:40.765Z,58.75
2018-06-17T13:11:42.446Z,58.56
2018-06-17T13:13:44.478Z,57.92
2018-06-17T13:15:46.249Z,56.63
2018-06-17T13:17:48.169Z,57.50
2018-06-17T13:19:50.155Z,58.08
2018-06-17T13:21:51.932Z,58.47
2018-06-17T13:23:53.819Z,57.40
2018-06-17T13:25:55.965Z,57.60
2018-06-17T13:27:57.805Z,57.21
2018-06-17T13:29:59.526Z,57.21
2018-06-17T13:32:01.286Z,58.95
2018-06-17T13:34:02.999Z,58.47
2018-06-17T13:36:05.209Z,58.56
2018-06-17T13:38:07.103Z,59.14
2018-06-17T13:40:09.047Z,58.47
2018-06-17T13:42:10.883Z,57.79
2018-06-17T13:44:12.703Z,57.69
2018-06-17T13:46:17.414Z,57.79
